Thornton, CO

04:18 AM MDT af October 21, 2014 (GMT -0600)
Northmoor Subdivision - Central Broomfield | Change Station
CLOSE
Current Station
Personal Weather Stations
Location: Broomfield, CO
Elevation: 5384 ft
Nearby Weather Stations

Elev 5384 ft 39.94 °N, 105.05 °W | Updated 0 second ago

klor
klor
46.2 °f
Feels Like 46 °f
N
0.0
vint baytevdik vint from tsofn[ts]
Gusts 1.6 mph

haynt
High -- | Low -- °f
--% Chance of Precip.
Yesterday
High -- | Low -- °f
Precip. -- in
7:17 AM 6:11 PM
Waning Crescent, 6% visible
druk 30.04 in
zeevdikeyt 10.0 mayln
Clouds klor
vintkelt 46 °f
toypunkt 38 °f
faykhtkeyt 74%
Rainfall 0.00 in
Snow Depth Not available.
UV 0 out of 12
Pollen 2.90 out of 12
Air Quality Not available.
Flu Activity Sporadic
METAR KBJC 210955Z AUTO 00000KT 10SM CLR 11/02 A3004 RMK AO2

More Conditions Fewer Conditions

druk 30.04 in
zeevdikeyt 10.0 mayln
Clouds klor
vintkelt 46 °f
toypunkt 38 °f
faykhtkeyt 74%
Rainfall 0.00 in
Snow Depth Not available.
UV 0 out of 12
Pollen 2.90 out of 12
Air Quality Not available.
Flu Activity Sporadic
METAR KBJC 210955Z AUTO 00000KT 10SM CLR 11/02 A3004 RMK AO2

More Conditions Fewer Conditions

10-Day Weather Forecast

Almanac

Astronomy

Oct. 21, 2014 Rise Set
Actual Time 7:17 AM MDT 6:11 PM MDT
Civil Twilight 6:49 AM MDT 6:39 PM MDT
Nautical Twilight 6:18 AM MDT 7:10 PM MDT
Astronomical Twilight 5:46 AM MDT 7:42 PM MDT
Moon 5:03 AM MDT 5:07 PM MDT
Length Of Visible Light 11h 49m
Length of Day
10h 54m
Tomorrow will be 2m 28s shorter.
Waning Crescent, 6% of the Moon is Illuminated
haynt
Waning Crescent
Oct 23
New
Oct 30
First Quarter
Nov 6
Full
Nov 14
Last Quarter

Today's Extremes

State Highs State Lows

Community

WunderPhotos

Upload Photos

1,763,625 photos uploaded!

Nearby

Air Quality

  Air Quality AQ Index Pollutant
Yesterday Good
OZONE
Yesterday Good
PM10
dinstik Good
OZONE
dinstik Good
PM2.5

Snow Depth

Station Depth Elevation
Niwot 0 in 9910 ft
Lake Eldora 0 in 9700 ft
University Camp 0 in 10300 ft
Copeland Lake 0 in 8600 ft
Wild Basin 0 in 9560 ft

Earthquake Activity

City Distance Mag. Time & Date
No recent earthquake activity has been reported nearby.
Minimum magnitude displayed is 2.5.

Coastal Water Temperatures

plats temperatur
No Stations Reporting

Nearby Weather Stations